Terminal Aerodrome Forecast
Issued by NWS

Current Version | Previous Version | Text Only | Print | Product List | Glossary On
Versions: 1 2 3 4 5 6 7 8 9 10 11 12 13 14 15 16
000
FTUS42 KTBW 271121
TAFLAL
TAF
KLAL 271121Z 2712/2812 VRB06KT P6SM FEW020 SCT030 SCT250
     FM271900 07010G19KT P6SM VCTS FEW050CB SCT250
     FM280300 VRB06KT P6SM FEW250=

USA.gov is the U.S. government's official web portal to all federal, state and local government web resources and services.